Time;durP1;ratioP1;P1;durP2;ratioP2;P2;SDS_P1;SDS_P2;PMS_P1;PMS_P2;Temp;Humidity;BMP_temperature;BMP_pressure;BME280_temperature;BME280_humidity;BME280_pressure;Samples;Min_cycle;Max_cycle;Signal;HPM_P1;HPM_P2
2021/03/05 00:01:26;;;;;;;8.87;4.23;;;3.70;99.90;;;;;;5018172;28;20166;-79
2021/03/05 00:03:51;;;;;;;7.83;4.87;;;3.80;99.90;;;;;;5000775;28;20214;-80
2021/03/05 00:06:19;;;;;;;7.97;4.23;;;3.80;99.90;;;;;;5019441;28;20166;-79
2021/03/05 00:08:45;;;;;;;9.48;5.13;;;3.80;99.90;;;;;;5019843;28;20534;-80
2021/03/05 00:11:10;;;;;;;10.90;4.27;;;3.90;99.90;;;;;;5018745;28;20193;-80
2021/03/05 00:13:36;;;;;;;5.60;3.80;;;3.70;99.90;;;;;;5018136;28;20820;-79
2021/03/05 00:16:04;;;;;;;8.60;4.73;;;3.70;99.90;;;;;;5002773;28;20321;-81
2021/03/05 00:18:30;;;;;;;7.50;4.93;;;3.70;99.90;;;;;;5019550;28;20168;-80
2021/03/05 00:20:55;;;;;;;6.43;4.07;;;3.80;99.90;;;;;;5018910;28;20170;-80
2021/03/05 00:23:22;;;;;;;8.40;4.90;;;3.90;99.90;;;;;;5017756;28;20536;-79
2021/03/05 00:25:49;;;;;;;7.35;4.65;;;3.70;99.90;;;;;;5018357;28;20224;-79
2021/03/05 00:28:15;;;;;;;6.10;4.05;;;3.70;99.90;;;;;;5020436;28;20171;-80
2021/03/05 00:30:41;;;;;;;8.68;5.03;;;3.70;99.90;;;;;;5016454;28;20182;-79
2021/03/05 00:33:07;;;;;;;14.10;7.80;;;3.70;99.90;;;;;;5016418;28;20182;-81
2021/03/05 00:35:32;;;;;;;15.43;7.30;;;3.50;99.90;;;;;;5008075;28;20216;-80
2021/03/05 00:37:58;;;;;;;13.50;6.87;;;3.50;99.90;;;;;;5002787;28;20178;-79
2021/03/05 00:40:24;;;;;;;16.30;6.97;;;3.50;99.90;;;;;;5019261;28;20209;-81
2021/03/05 00:42:51;;;;;;;13.05;5.72;;;3.50;99.90;;;;;;5001235;28;20170;-79
2021/03/05 00:45:18;;;;;;;14.82;8.20;;;3.40;99.90;;;;;;5018498;28;20178;-79
2021/03/05 00:47:44;;;;;;;16.48;7.70;;;3.30;99.90;;;;;;5000454;28;20189;-78
2021/03/05 00:50:14;;;;;;;10.53;6.40;;;3.40;99.90;;;;;;5017634;28;20194;-80
2021/03/05 00:52:39;;;;;;;14.30;6.85;;;3.50;99.90;;;;;;5017513;28;20373;-79
2021/03/05 00:55:07;;;;;;;14.00;8.10;;;3.40;99.90;;;;;;5016886;28;20669;-80
2021/03/05 00:57:33;;;;;;;13.68;6.40;;;3.40;99.90;;;;;;5016648;28;20808;-79
2021/03/05 00:59:59;;;;;;;16.98;6.90;;;3.40;99.90;;;;;;5017888;28;20186;-80
2021/03/05 01:02:24;;;;;;;12.03;6.73;;;3.20;99.90;;;;;;5017031;28;20530;-79
2021/03/05 01:04:50;;;;;;;16.90;7.30;;;3.10;99.90;;;;;;5015639;28;20181;-79
2021/03/05 01:07:16;;;;;;;14.30;7.43;;;3.10;99.90;;;;;;5016197;28;20210;-79
2021/03/05 01:09:41;;;;;;;23.20;9.57;;;3.20;99.90;;;;;;5017331;28;20213;-80
2021/03/05 01:12:08;;;;;;;13.73;6.23;;;3.20;99.90;;;;;;5017349;28;20186;-79
2021/03/05 01:14:33;;;;;;;21.90;7.20;;;3.20;99.90;;;;;;5023422;28;20209;-80
2021/03/05 01:16:59;;;;;;;23.00;8.97;;;3.20;99.90;;;;;;5020905;28;20170;-80
2021/03/05 01:19:26;;;;;;;12.60;8.43;;;3.20;99.90;;;;;;5018431;28;20669;-79
2021/03/05 01:21:52;;;;;;;12.50;6.40;;;3.10;99.90;;;;;;5018197;28;20177;-79
2021/03/05 01:24:18;;;;;;;12.90;6.82;;;3.00;99.90;;;;;;5001536;28;21048;-79
2021/03/05 01:26:43;;;;;;;16.47;6.43;;;3.00;99.90;;;;;;5002084;28;20204;-81
2021/03/05 01:29:09;;;;;;;13.27;6.90;;;3.00;99.90;;;;;;5000956;28;20198;-78
2021/03/05 01:31:35;;;;;;;11.77;6.90;;;2.90;99.90;;;;;;5017811;28;20260;-79
2021/03/05 01:34:03;;;;;;;15.20;6.53;;;2.80;99.90;;;;;;5016393;28;20284;-79
2021/03/05 01:36:28;;;;;;;21.38;9.23;;;2.90;99.90;;;;;;5016348;28;20417;-79
2021/03/05 01:38:54;;;;;;;14.23;6.20;;;2.90;99.90;;;;;;5016053;28;20197;-80
2021/03/05 01:41:19;;;;;;;14.17;6.33;;;3.00;99.90;;;;;;4999994;28;20182;-79
2021/03/05 01:43:45;;;;;;;12.70;5.90;;;2.90;99.90;;;;;;5015648;28;20183;-80
2021/03/05 01:46:11;;;;;;;22.13;6.60;;;3.10;99.90;;;;;;5017188;28;20170;-80
2021/03/05 01:48:38;;;;;;;13.07;6.72;;;3.00;99.90;;;;;;5015797;28;20202;-79
2021/03/05 01:51:12;;;;;;;12.57;6.82;;;2.80;99.90;;;;;;5016531;28;20230;-80
2021/03/05 01:53:40;;;;;;;16.30;9.35;;;2.70;99.90;;;;;;5014767;28;20224;-78
2021/03/05 01:56:07;;;;;;;13.48;6.43;;;2.60;99.90;;;;;;5015895;28;20240;-79
2021/03/05 01:58:33;;;;;;;17.92;6.80;;;2.60;99.90;;;;;;5015031;28;20201;-79
2021/03/05 02:01:01;;;;;;;22.60;7.18;;;2.70;99.90;;;;;;4998105;28;20178;-79
2021/03/05 02:03:30;;;;;;;9.73;5.07;;;2.70;99.90;;;;;;5017569;28;20181;-79
2021/03/05 02:05:56;;;;;;;16.33;6.10;;;2.80;99.90;;;;;;5017092;28;20185;-79
2021/03/05 02:08:21;;;;;;;13.93;6.93;;;2.70;99.90;;;;;;5019634;28;20174;-78
2021/03/05 02:10:48;;;;;;;17.17;5.57;;;2.60;99.90;;;;;;5017277;28;20202;-80
2021/03/05 02:13:13;;;;;;;20.17;6.43;;;2.70;99.90;;;;;;4999715;28;20209;-79
2021/03/05 02:15:39;;;;;;;22.63;8.10;;;2.80;99.90;;;;;;4999731;28;20202;-80
2021/03/05 02:18:14;;;;;;;15.30;7.10;;;2.70;99.90;;;;;;5016625;28;20166;-81
2021/03/05 02:20:48;;;;;;;16.73;7.97;;;2.50;99.90;;;;;;5016792;28;20548;-81
2021/03/05 02:23:39;;;;;;;14.55;5.28;;;2.50;99.90;;;;;;5016632;28;20177;-80
2021/03/05 02:26:52;;;;;;;10.82;6.55;;;2.40;99.90;;;;;;5016974;28;20154;-80
2021/03/05 02:29:55;;;;;;;17.60;8.57;;;2.40;99.90;;;;;;5008739;28;20244;-80
2021/03/05 02:32:29;;;;;;;31.73;7.28;;;2.40;99.90;;;;;;5015238;28;20174;-80
2021/03/05 02:34:59;;;;;;;13.30;6.00;;;2.40;99.90;;;;;;5015318;28;20194;-78
2021/03/05 02:37:28;;;;;;;19.52;5.95;;;2.30;99.90;;;;;;5014931;28;20178;-80
2021/03/05 02:39:59;;;;;;;38.67;14.38;;;2.10;99.90;;;;;;5014300;28;20658;-79
2021/03/05 02:42:29;;;;;;;15.07;7.32;;;2.00;99.90;;;;;;5014473;28;20201;-79
2021/03/05 02:44:58;;;;;;;17.48;7.05;;;2.00;99.90;;;;;;5016415;28;20237;-79
2021/03/05 02:47:25;;;;;;;26.90;7.80;;;2.00;99.90;;;;;;5024628;28;20178;-79
2021/03/05 02:49:54;;;;;;;26.35;8.65;;;1.90;99.90;;;;;;5030594;28;20186;-79
2021/03/05 02:52:22;;;;;;;13.55;5.15;;;2.00;99.90;;;;;;5034601;28;20143;-79
2021/03/05 02:54:53;;;;;;;13.27;5.07;;;2.00;99.90;;;;;;5032246;28;20189;-79
2021/03/05 02:57:21;;;;;;;18.80;6.70;;;1.90;99.90;;;;;;5029336;28;20161;-80
2021/03/05 02:59:48;;;;;;;14.40;5.25;;;1.70;99.90;;;;;;5025828;28;20246;-79
2021/03/05 03:02:14;;;;;;;8.52;4.60;;;1.70;99.90;;;;;;5022250;28;20205;-80
2021/03/05 03:04:43;;;;;;;20.67;7.32;;;1.70;99.90;;;;;;5018101;28;20170;-80
2021/03/05 03:07:12;;;;;;;9.77;5.47;;;1.60;99.90;;;;;;5016307;28;20167;-80
2021/03/05 03:09:40;;;;;;;12.18;5.05;;;1.60;99.90;;;;;;5014990;28;20236;-80
2021/03/05 03:12:08;;;;;;;10.52;5.10;;;1.80;99.90;;;;;;5014891;28;20193;-79
2021/03/05 03:14:36;;;;;;;14.77;6.50;;;1.80;99.90;;;;;;5017954;28;20564;-80
2021/03/05 03:17:02;;;;;;;23.40;7.30;;;1.60;99.90;;;;;;5018543;28;20370;-79
2021/03/05 03:19:28;;;;;;;14.20;7.07;;;1.60;99.90;;;;;;5001640;28;20283;-78
2021/03/05 03:21:53;;;;;;;17.48;6.68;;;1.50;99.90;;;;;;5018509;28;20242;-79
2021/03/05 03:24:19;;;;;;;10.10;4.83;;;1.50;99.90;;;;;;5019519;28;20202;-78
2021/03/05 03:26:45;;;;;;;17.00;4.70;;;1.50;99.90;;;;;;5019818;28;20201;-78
2021/03/05 03:29:11;;;;;;;8.83;4.70;;;1.40;99.90;;;;;;5019591;28;20436;-80
2021/03/05 03:31:38;;;;;;;14.20;5.40;;;1.40;99.90;;;;;;5018048;28;20197;-79
2021/03/05 03:34:08;;;;;;;12.82;5.32;;;1.50;99.90;;;;;;5018781;28;20448;-79
2021/03/05 03:36:38;;;;;;;17.20;8.82;;;1.40;99.90;;;;;;5018431;28;20219;-79
2021/03/05 03:39:09;;;;;;;23.38;6.82;;;1.40;99.90;;;;;;5018755;28;20685;-80
2021/03/05 03:41:36;;;;;;;9.65;4.80;;;1.40;99.90;;;;;;5018624;28;20282;-79
2021/03/05 03:44:04;;;;;;;25.75;6.60;;;1.40;99.90;;;;;;5018157;28;20276;-78
2021/03/05 03:46:31;;;;;;;12.45;5.72;;;1.30;99.90;;;;;;5019506;28;20269;-79
2021/03/05 03:49:01;;;;;;;27.67;4.55;;;1.40;99.90;;;;;;5019269;28;20247;-78
2021/03/05 03:51:28;;;;;;;13.80;5.45;;;1.40;99.90;;;;;;5001191;28;20178;-78
2021/03/05 03:53:55;;;;;;;5.63;3.80;;;1.50;99.90;;;;;;5001229;28;20232;-78
2021/03/05 03:56:25;;;;;;;6.90;4.38;;;1.40;99.90;;;;;;5018288;28;20166;-80
2021/03/05 03:58:54;;;;;;;9.85;4.30;;;1.40;99.90;;;;;;5018255;28;20576;-79
2021/03/05 04:01:21;;;;;;;9.63;4.53;;;1.40;99.90;;;;;;5017969;28;20589;-79
2021/03/05 04:03:50;;;;;;;7.72;4.55;;;1.30;99.90;;;;;;5017762;28;20170;-79
2021/03/05 04:06:22;;;;;;;13.48;4.75;;;1.30;99.90;;;;;;5018205;28;20280;-80
2021/03/05 04:08:50;;;;;;;11.80;4.35;;;1.30;99.90;;;;;;5020023;28;20205;-79
2021/03/05 04:11:17;;;;;;;19.17;5.60;;;1.30;99.90;;;;;;5029373;28;20170;-78
2021/03/05 04:13:43;;;;;;;12.65;5.50;;;1.20;99.90;;;;;;5028287;28;20181;-78
2021/03/05 04:16:10;;;;;;;19.85;4.82;;;1.20;99.90;;;;;;5022692;28;20197;-78
2021/03/05 04:18:40;;;;;;;10.85;3.88;;;1.20;99.90;;;;;;5016117;28;20194;-79
2021/03/05 04:21:09;;;;;;;12.88;4.72;;;1.20;99.90;;;;;;5016130;28;20174;-79
2021/03/05 04:23:35;;;;;;;9.15;4.60;;;1.30;99.90;;;;;;5015415;28;20269;-80
2021/03/05 04:26:04;;;;;;;10.25;4.78;;;1.50;99.90;;;;;;5016211;28;20206;-79
2021/03/05 04:28:30;;;;;;;9.95;3.50;;;1.50;99.90;;;;;;5016141;28;20174;-80
2021/03/05 04:30:56;;;;;;;11.52;3.63;;;1.40;99.90;;;;;;4999880;28;20186;-79
2021/03/05 04:33:21;;;;;;;12.65;4.13;;;1.30;99.90;;;;;;5000004;28;20184;-78
2021/03/05 04:35:47;;;;;;;7.63;3.60;;;1.30;99.90;;;;;;4999000;28;20304;-79
2021/03/05 04:38:13;;;;;;;4.30;3.23;;;1.10;99.90;;;;;;5015101;28;20182;-79
2021/03/05 04:40:38;;;;;;;15.07;4.60;;;1.10;99.90;;;;;;5017345;28;20584;-80
2021/03/05 04:43:04;;;;;;;13.23;4.07;;;1.20;99.90;;;;;;5000135;28;20197;-79
2021/03/05 04:45:30;;;;;;;10.90;3.70;;;1.20;99.90;;;;;;5016788;28;20181;-79
2021/03/05 04:47:55;;;;;;;10.00;3.70;;;1.20;99.90;;;;;;5015381;28;20452;-78
2021/03/05 04:50:21;;;;;;;9.13;4.40;;;1.10;99.90;;;;;;5018845;28;20213;-81
2021/03/05 04:52:46;;;;;;;5.87;2.83;;;1.00;99.90;;;;;;5001466;28;20189;-80
2021/03/05 04:55:12;;;;;;;9.97;3.50;;;0.90;99.90;;;;;;4998707;28;20216;-80
2021/03/05 04:57:38;;;;;;;7.17;4.43;;;0.90;99.90;;;;;;5016628;28;20174;-80
2021/03/05 05:00:05;;;;;;;7.33;4.07;;;0.90;99.90;;;;;;5000892;28;20441;-79
2021/03/05 05:02:31;;;;;;;10.30;3.30;;;0.90;99.90;;;;;;5016387;28;20220;-79
2021/03/05 05:04:57;;;;;;;11.63;3.93;;;0.80;99.90;;;;;;5017041;28;20174;-79
2021/03/05 05:07:22;;;;;;;7.87;5.73;;;0.80;99.90;;;;;;5017646;28;20280;-80
2021/03/05 05:09:48;;;;;;;13.93;4.27;;;0.80;99.90;;;;;;5017976;28;20217;-80
2021/03/05 05:12:14;;;;;;;11.27;4.83;;;0.80;99.90;;;;;;5017449;28;20425;-80
2021/03/05 05:14:39;;;;;;;14.57;4.97;;;0.70;99.90;;;;;;5017138;28;20300;-80
2021/03/05 05:17:05;;;;;;;12.00;3.50;;;0.70;99.90;;;;;;5018280;28;20500;-79
2021/03/05 05:19:31;;;;;;;7.47;4.00;;;0.70;99.90;;;;;;5001299;28;20193;-80
2021/03/05 05:21:57;;;;;;;7.13;4.07;;;0.70;99.90;;;;;;5016779;28;20182;-80
2021/03/05 05:24:22;;;;;;;15.63;7.33;;;0.60;99.90;;;;;;5016373;28;20441;-80
2021/03/05 05:26:48;;;;;;;10.33;4.80;;;0.50;99.90;;;;;;5032605;28;20478;-80
2021/03/05 05:29:13;;;;;;;8.00;4.50;;;0.60;99.90;;;;;;5015202;28;20284;-80
2021/03/05 05:31:39;;;;;;;10.23;4.60;;;0.60;99.90;;;;;;5016666;28;20182;-78
2021/03/05 05:34:04;;;;;;;10.73;4.90;;;0.60;99.90;;;;;;5013531;28;20594;-78
2021/03/05 05:36:30;;;;;;;14.03;6.10;;;0.60;99.90;;;;;;4997249;28;20174;-77
2021/03/05 05:38:56;;;;;;;28.43;9.00;;;0.60;99.90;;;;;;5016871;28;20206;-80
2021/03/05 05:41:25;;;;;;;14.83;6.70;;;0.50;99.90;;;;;;5015685;28;20513;-78
2021/03/05 05:43:51;;;;;;;15.20;7.35;;;0.60;99.90;;;;;;5022852;28;20234;-79
2021/03/05 05:46:19;;;;;;;10.65;5.07;;;0.60;99.90;;;;;;5019046;28;20748;-80
2021/03/05 05:48:47;;;;;;;12.55;5.63;;;0.70;99.90;;;;;;5017456;28;20225;-79
2021/03/05 05:51:21;;;;;;;18.77;7.15;;;0.60;99.90;;;;;;5016687;28;20178;-80
2021/03/05 05:53:48;;;;;;;5.75;4.20;;;0.60;99.90;;;;;;5016697;28;20193;-80
2021/03/05 05:56:18;;;;;;;8.55;4.30;;;0.70;99.90;;;;;;5016003;28;20170;-80
2021/03/05 05:58:45;;;;;;;7.93;4.22;;;1.00;99.90;;;;;;5017765;28;20190;-81
2021/03/05 06:01:11;;;;;;;5.05;3.35;;;0.80;99.90;;;;;;5018878;28;20233;-79
2021/03/05 06:03:38;;;;;;;8.07;3.53;;;1.00;99.90;;;;;;5018043;28;20651;-79
2021/03/05 06:06:04;;;;;;;10.38;2.72;;;1.00;99.90;;;;;;5017882;28;20273;-80
2021/03/05 06:08:30;;;;;;;7.05;3.53;;;1.00;99.90;;;;;;4999048;28;20178;-79
2021/03/05 06:10:56;;;;;;;5.20;2.80;;;0.90;99.90;;;;;;5015140;28;20236;-78
2021/03/05 06:13:25;;;;;;;5.40;3.50;;;0.70;99.90;;;;;;5012460;28;20170;-78
2021/03/05 06:16:17;;;;;;;18.50;4.00;;;0.90;99.90;;;;;;5008128;28;20552;-79
2021/03/05 06:18:43;;;;;;;5.25;3.42;;;1.00;99.90;;;;;;4996261;28;20285;-80
2021/03/05 06:21:10;;;;;;;4.60;2.80;;;1.10;99.90;;;;;;5007185;28;20588;-78
2021/03/05 06:23:57;;;;;;;4.50;4.05;;;1.00;99.90;;;;;;5011159;28;20177;-79
2021/03/05 06:26:24;;;;;;;5.18;3.03;;;1.00;99.90;;;;;;4995784;28;20178;-78
2021/03/05 06:29:06;;;;;;;3.85;2.80;;;1.00;99.90;;;;;;5013906;28;20205;-78
2021/03/05 06:31:33;;;;;;;5.13;2.95;;;1.10;99.90;;;;;;5011214;28;20653;-78
2021/03/05 06:34:03;;;;;;;6.95;3.60;;;1.10;99.90;;;;;;5012951;28;20273;-78
2021/03/05 06:36:29;;;;;;;4.70;2.90;;;1.10;99.90;;;;;;5014990;28;20162;-78
2021/03/05 06:38:55;;;;;;;6.57;3.63;;;1.10;99.90;;;;;;4997111;28;20288;-79
2021/03/05 06:41:20;;;;;;;11.38;3.25;;;1.30;99.90;;;;;;5011794;28;20201;-78
2021/03/05 06:43:49;;;;;;;3.60;3.17;;;1.90;99.90;;;;;;5008389;28;20201;-79
2021/03/05 06:46:35;;;;;;;5.85;3.80;;;2.30;99.90;;;;;;5011364;28;20269;-79
2021/03/05 06:49:06;;;;;;;4.22;3.10;;;2.40;99.90;;;;;;5001954;28;20198;-78
2021/03/05 06:51:32;;;;;;;4.57;2.80;;;2.30;99.90;;;;;;5016835;28;20177;-77
2021/03/05 06:54:10;;;;;;;8.30;3.60;;;2.40;99.90;;;;;;5005136;28;20218;-78
2021/03/05 06:56:39;;;;;;;7.22;3.40;;;2.80;99.90;;;;;;5003797;28;20197;-78
2021/03/05 06:59:10;;;;;;;3.45;2.83;;;2.50;99.90;;;;;;4995879;28;20187;-79
2021/03/05 07:01:56;;;;;;;4.65;2.58;;;2.30;99.90;;;;;;4999000;28;20249;-78
2021/03/05 07:04:32;;;;;;;20.75;3.30;;;2.80;99.90;;;;;;5015084;28;20253;-77
2021/03/05 07:07:06;;;;;;;5.93;2.60;;;2.80;99.90;;;;;;5016289;28;20185;-78
2021/03/05 07:09:37;;;;;;;3.90;3.50;;;2.70;99.90;;;;;;5015410;28;20232;-79
2021/03/05 07:12:23;;;;;;;3.90;2.75;;;3.10;99.90;;;;;;5013848;28;20182;-78
2021/03/05 07:14:58;;;;;;;4.57;2.72;;;3.30;99.90;;;;;;5017435;28;20623;-78
2021/03/05 07:17:24;;;;;;;4.15;3.13;;;3.30;99.90;;;;;;5017267;28;20177;-79
2021/03/05 07:19:50;;;;;;;6.60;4.15;;;3.40;99.90;;;;;;4999461;28;20202;-79
2021/03/05 07:22:17;;;;;;;6.23;3.40;;;3.00;99.90;;;;;;5001543;28;20194;-80
2021/03/05 07:24:48;;;;;;;5.65;3.63;;;2.90;99.90;;;;;;5017259;28;20209;-79
2021/03/05 07:27:14;;;;;;;5.93;2.97;;;3.10;99.90;;;;;;5018040;28;20174;-77
2021/03/05 07:29:44;;;;;;;4.30;2.80;;;3.30;99.90;;;;;;5016331;28;20673;-77
2021/03/05 07:32:26;;;;;;;3.10;2.25;;;3.00;99.90;;;;;;5015707;28;20174;-78
2021/03/05 07:35:06;;;;;;;5.38;3.47;;;2.70;99.90;;;;;;5016445;28;20225;-79
2021/03/05 07:37:45;;;;;;;6.03;2.90;;;2.60;99.90;;;;;;4999079;28;20178;-79
2021/03/05 07:40:14;;;;;;;5.95;3.25;;;2.70;99.90;;;;;;5016134;28;20189;-79
2021/03/05 07:42:40;;;;;;;7.93;3.30;;;2.60;99.90;;;;;;5017270;28;20257;-79
2021/03/05 07:45:08;;;;;;;3.92;2.83;;;2.60;99.90;;;;;;5017225;28;20174;-80
2021/03/05 07:47:37;;;;;;;4.05;2.80;;;2.70;99.90;;;;;;5018050;28;20186;-79
2021/03/05 07:50:06;;;;;;;3.78;2.67;;;2.60;99.90;;;;;;5018808;28;20201;-78
2021/03/05 07:52:32;;;;;;;4.15;2.22;;;2.50;99.90;;;;;;5020210;28;20201;-78
2021/03/05 07:54:58;;;;;;;4.20;2.60;;;2.60;99.90;;;;;;5020918;28;20213;-78
2021/03/05 07:57:23;;;;;;;3.60;3.27;;;2.90;99.90;;;;;;5019813;28;20232;-78
2021/03/05 07:59:52;;;;;;;4.10;3.03;;;3.00;99.90;;;;;;5017105;28;20190;-79
2021/03/05 08:02:19;;;;;;;4.45;3.72;;;3.20;99.90;;;;;;5000943;28;20170;-78
2021/03/05 08:04:55;;;;;;;5.72;3.45;;;3.30;99.90;;;;;;4999543;28;20181;-79
2021/03/05 08:07:26;;;;;;;3.65;2.50;;;3.40;99.90;;;;;;5015710;28;20586;-78
2021/03/05 08:09:52;;;;;;;4.15;2.50;;;3.40;99.90;;;;;;5018082;28;20214;-79
2021/03/05 08:15:12;;;;;;;6.38;2.67;;;3.50;99.90;;;;;;5017775;28;20234;-77
2021/03/05 08:17:43;;;;;;;2.85;2.40;;;3.80;99.90;;;;;;5017784;28;20193;-78
2021/03/05 08:20:17;;;;;;;4.15;2.35;;;3.70;99.90;;;;;;5018819;28;20201;-78
2021/03/05 08:22:58;;;;;;;3.67;2.38;;;3.60;99.90;;;;;;5017495;28;20248;-78
2021/03/05 08:25:29;;;;;;;2.42;2.20;;;3.40;99.90;;;;;;5016890;28;20257;-78
2021/03/05 08:27:59;;;;;;;3.38;2.40;;;3.30;99.90;;;;;;5016219;28;20641;-78
2021/03/05 08:30:34;;;;;;;5.65;2.90;;;3.20;99.90;;;;;;5017134;28;20270;-78
2021/03/05 08:33:02;;;;;;;4.45;3.60;;;3.10;99.90;;;;;;5015719;28;20212;-78
2021/03/05 08:35:31;;;;;;;8.70;4.00;;;3.10;99.90;;;;;;5016863;28;20290;-78
2021/03/05 08:38:00;;;;;;;3.63;2.90;;;3.30;99.90;;;;;;5014053;28;20692;-78
2021/03/05 08:40:45;;;;;;;4.38;2.67;;;3.60;99.90;;;;;;5014020;28;20293;-77
2021/03/05 08:43:10;;;;;;;3.92;3.50;;;3.80;99.90;;;;;;5016396;28;20176;-78
2021/03/05 08:45:46;;;;;;;3.30;3.00;;;3.80;99.90;;;;;;5016199;28;20265;-78
2021/03/05 08:48:15;;;;;;;3.78;3.15;;;3.60;99.90;;;;;;5016812;28;20173;-77
2021/03/05 08:50:42;;;;;;;4.25;2.42;;;3.60;99.90;;;;;;5015743;28;20178;-77
2021/03/05 08:53:16;;;;;;;2.80;2.47;;;3.60;99.90;;;;;;5014419;28;20185;-77
2021/03/05 08:55:44;;;;;;;5.43;2.20;;;3.90;99.90;;;;;;5014191;28;20209;-77
2021/03/05 08:58:15;;;;;;;2.47;2.25;;;3.70;99.90;;;;;;5015595;28;20177;-77
2021/03/05 09:00:41;;;;;;;3.25;2.47;;;3.70;99.90;;;;;;5014343;28;20587;-77
2021/03/05 09:03:09;;;;;;;10.77;3.20;;;4.00;99.90;;;;;;5015841;28;20158;-78
2021/03/05 09:05:38;;;;;;;3.80;2.90;;;3.90;99.90;;;;;;5015704;28;20182;-78
2021/03/05 09:08:05;;;;;;;4.15;3.25;;;3.80;99.90;;;;;;5016536;28;20178;-77
2021/03/05 09:10:42;;;;;;;7.00;3.70;;;3.80;99.90;;;;;;5018315;28;20205;-78
2021/03/05 09:13:11;;;;;;;7.38;2.70;;;3.90;99.90;;;;;;5020702;28;20182;-78
2021/03/05 09:15:45;;;;;;;6.40;4.57;;;4.40;99.90;;;;;;5032524;28;20221;-78
2021/03/05 09:18:13;;;;;;;3.92;3.05;;;4.40;99.90;;;;;;5036644;28;20185;-78
2021/03/05 09:20:47;;;;;;;5.10;3.00;;;4.50;99.90;;;;;;5037133;28;20178;-78
2021/03/05 09:23:21;;;;;;;5.32;4.18;;;4.50;99.90;;;;;;5019785;28;20185;-78
2021/03/05 09:25:48;;;;;;;6.75;4.10;;;4.50;99.90;;;;;;5015312;28;20210;-79
2021/03/05 09:28:14;;;;;;;3.70;3.17;;;4.30;99.90;;;;;;5015947;28;20185;-79
2021/03/05 09:30:40;;;;;;;3.70;3.40;;;4.40;99.90;;;;;;4994490;28;20198;-79
2021/03/05 09:33:06;;;;;;;7.43;3.20;;;4.40;99.90;;;;;;5014123;28;20216;-78
2021/03/05 09:35:32;;;;;;;7.77;4.37;;;4.40;99.90;;;;;;5013648;28;20843;-78
2021/03/05 09:37:58;;;;;;;5.97;3.90;;;4.10;99.90;;;;;;5016225;28;20468;-78
2021/03/05 09:40:26;;;;;;;5.40;3.55;;;4.00;99.90;;;;;;5008806;28;20229;-78
2021/03/05 09:42:53;;;;;;;4.75;3.63;;;3.80;99.90;;;;;;5001434;28;20162;-78
2021/03/05 09:45:52;;;;;;;6.32;4.13;;;3.90;99.90;;;;;;5012054;28;20185;-77
2021/03/05 09:48:31;;;;;;;3.72;2.60;;;4.10;99.90;;;;;;5002030;28;20273;-77
2021/03/05 09:50:59;;;;;;;5.22;3.13;;;3.80;99.90;;;;;;5001592;28;20205;-79
2021/03/05 09:53:30;;;;;;;8.82;4.53;;;3.70;99.90;;;;;;4993427;28;20233;-79
2021/03/05 09:56:07;;;;;;;3.35;2.95;;;3.80;99.90;;;;;;5001343;28;20216;-78
2021/03/05 09:58:34;;;;;;;6.57;3.83;;;3.70;99.90;;;;;;5014190;28;20197;-76
2021/03/05 10:01:00;;;;;;;5.03;2.92;;;3.80;99.90;;;;;;5012894;28;20641;-77
2021/03/05 10:03:26;;;;;;;4.63;3.35;;;3.90;99.90;;;;;;5014593;28;20186;-78
2021/03/05 10:05:52;;;;;;;5.60;2.37;;;4.00;99.90;;;;;;5014844;28;20178;-76
2021/03/05 10:08:21;;;;;;;2.10;1.90;;;4.30;99.90;;;;;;5003104;28;20917;-81
2021/03/05 10:11:09;;;;;;;4.50;2.90;;;4.30;99.90;;;;;;5001657;28;20194;-80
2021/03/05 10:14:07;;;;;;;5.95;2.47;;;4.40;99.90;;;;;;5011260;28;20186;-79
2021/03/05 10:16:43;;;;;;;2.90;2.05;;;4.30;99.90;;;;;;4980742;28;20194;-77
2021/03/05 10:19:11;;;;;;;3.80;2.55;;;4.00;99.90;;;;;;5012619;28;20209;-79
2021/03/05 10:21:45;;;;;;;2.75;2.33;;;4.10;99.90;;;;;;5012543;28;20320;-79
2021/03/05 10:24:14;;;;;;;2.25;2.05;;;4.00;99.90;;;;;;5014176;28;20242;-79
2021/03/05 10:27:25;;;;;;;3.70;2.10;;;4.20;99.90;;;;;;4998401;28;20191;-79
2021/03/05 10:29:26;;;;;;;4.20;2.63;;;4.10;99.90;;;;;;5007005;28;20221;-80
2021/03/05 10:31:54;;;;;;;8.45;2.85;;;4.20;99.90;;;;;;5015262;28;20595;-78
2021/03/05 10:34:19;;;;;;;3.85;2.15;;;4.30;99.90;;;;;;5014373;28;20316;-78
2021/03/05 10:36:47;;;;;;;2.77;1.93;;;4.00;99.90;;;;;;5008597;28;20219;-79
2021/03/05 10:39:13;;;;;;;2.47;1.58;;;4.20;99.90;;;;;;5010656;28;20292;-80
2021/03/05 10:41:38;;;;;;;2.10;1.53;;;4.40;99.90;;;;;;4981879;28;20205;-78
2021/03/05 10:44:04;;;;;;;2.63;1.90;;;4.30;99.90;;;;;;5013346;28;20197;-78
2021/03/05 10:46:30;;;;;;;2.40;1.37;;;4.20;99.90;;;;;;5014599;28;20502;-78
2021/03/05 10:48:55;;;;;;;2.40;1.30;;;4.20;99.90;;;;;;4997867;28;20548;-78
2021/03/05 10:51:21;;;;;;;1.73;1.43;;;4.10;99.90;;;;;;4997915;28;20290;-78
2021/03/05 10:53:46;;;;;;;5.33;1.40;;;4.00;99.90;;;;;;5011783;28;20186;-78
2021/03/05 10:56:12;;;;;;;1.70;1.20;;;4.20;99.90;;;;;;5018203;28;20213;-79
2021/03/05 10:58:38;;;;;;;2.13;1.50;;;4.30;99.90;;;;;;5027397;28;20209;-79
2021/03/05 11:01:04;;;;;;;3.00;1.63;;;4.30;99.90;;;;;;4993588;28;20462;-79
2021/03/05 11:03:29;;;;;;;2.53;1.60;;;4.30;99.90;;;;;;4992183;28;20641;-79
2021/03/05 11:05:55;;;;;;;8.73;2.17;;;4.60;99.90;;;;;;4997181;28;20182;-79
2021/03/05 11:08:20;;;;;;;3.27;1.97;;;4.40;99.90;;;;;;5014889;28;20835;-78
2021/03/05 11:10:49;;;;;;;2.60;1.60;;;4.20;99.90;;;;;;5016736;28;20194;-79
2021/03/05 11:13:15;;;;;;;1.83;1.35;;;4.20;99.90;;;;;;5017556;28;20209;-79
2021/03/05 11:15:40;;;;;;;1.63;1.40;;;4.20;99.90;;;;;;5017650;28;20202;-80
2021/03/05 11:18:06;;;;;;;2.20;1.90;;;4.20;99.90;;;;;;5018995;28;20174;-79
2021/03/05 11:20:32;;;;;;;3.67;1.73;;;4.30;98.60;;;;;;5015833;28;20627;-79
2021/03/05 11:22:57;;;;;;;3.53;2.00;;;4.40;99.90;;;;;;5031315;28;20469;-81
2021/03/05 11:25:26;;;;;;;1.90;1.63;;;4.30;96.80;;;;;;5001795;28;20179;-80
2021/03/05 11:27:52;;;;;;;1.67;1.58;;;4.30;89.90;;;;;;5002728;28;20190;-80
2021/03/05 11:30:18;;;;;;;4.00;1.57;;;4.40;95.50;;;;;;5015226;28;20285;-80
2021/03/05 11:32:44;;;;;;;4.73;1.70;;;4.50;93.50;;;;;;4984164;28;20170;-80
2021/03/05 11:35:10;;;;;;;3.40;1.70;;;4.80;92.20;;;;;;4984954;28;20885;-80
2021/03/05 11:37:35;;;;;;;1.70;1.60;;;5.10;88.80;;;;;;4999122;28;20417;-80
2021/03/05 11:40:01;;;;;;;4.20;1.80;;;5.10;90.50;;;;;;5015786;28;20561;-80
2021/03/05 11:42:27;;;;;;;2.10;1.70;;;5.20;91.50;;;;;;5003279;28;20557;-81
2021/03/05 11:44:53;;;;;;;1.97;1.57;;;5.00;92.60;;;;;;5002213;28;20178;-79
2021/03/05 11:47:18;;;;;;;2.93;2.13;;;5.40;93.00;;;;;;5019736;28;20201;-79
2021/03/05 11:49:44;;;;;;;3.67;1.97;;;5.40;91.50;;;;;;5016937;28;20194;-79
2021/03/05 11:52:10;;;;;;;4.17;2.53;;;5.30;92.40;;;;;;4995397;28;20190;-78
2021/03/05 11:54:36;;;;;;;5.90;1.40;;;5.00;92.70;;;;;;5015393;28;20224;-79
2021/03/05 11:57:02;;;;;;;1.95;1.35;;;5.20;93.40;;;;;;5017842;28;20253;-79
2021/03/05 11:59:27;;;;;;;2.73;1.50;;;5.20;94.20;;;;;;5017756;28;20265;-78
2021/03/05 12:01:53;;;;;;;2.53;1.80;;;5.00;92.90;;;;;;5016425;28;20657;-79
2021/03/05 12:04:18;;;;;;;2.67;1.93;;;5.00;94.50;;;;;;5020063;28;20201;-80
2021/03/05 12:06:44;;;;;;;5.60;1.53;;;5.30;93.00;;;;;;5018152;28;20204;-79
2021/03/05 12:09:09;;;;;;;4.80;1.80;;;5.40;90.40;;;;;;5019488;28;20210;-79
2021/03/05 12:11:37;;;;;;;1.70;1.20;;;5.30;87.20;;;;;;5021704;28;20253;-79
2021/03/05 12:14:03;;;;;;;2.00;1.13;;;5.20;87.90;;;;;;5016723;28;20189;-79
2021/03/05 12:16:29;;;;;;;1.92;1.10;;;5.20;78.30;;;;;;4985563;28;20658;-79
2021/03/05 12:18:54;;;;;;;1.53;1.30;;;5.20;77.30;;;;;;4980704;28;20194;-79
2021/03/05 12:21:23;;;;;;;1.40;0.97;;;5.40;78.60;;;;;;4997310;28;20708;-80
2021/03/05 12:23:49;;;;;;;1.95;1.20;;;5.60;77.90;;;;;;4981433;28;20178;-80
2021/03/05 12:26:14;;;;;;;3.47;1.47;;;5.50;76.10;;;;;;4996400;28;20190;-78
2021/03/05 12:28:40;;;;;;;1.70;1.20;;;5.50;75.20;;;;;;4996882;28;20202;-79
2021/03/05 12:31:06;;;;;;;2.23;1.40;;;5.40;76.00;;;;;;5006576;28;20193;-79
2021/03/05 12:33:31;;;;;;;2.23;0.97;;;5.40;76.10;;;;;;5014959;28;20170;-78
2021/03/05 12:35:57;;;;;;;3.20;1.97;;;5.40;76.30;;;;;;5016585;28;20284;-78
2021/03/05 12:38:23;;;;;;;1.60;1.50;;;5.60;74.40;;;;;;5000960;28;20528;-78
2021/03/05 12:40:48;;;;;;;2.00;1.47;;;5.60;68.70;;;;;;5015718;28;20716;-77
2021/03/05 12:43:14;;;;;;;9.10;1.30;;;5.70;67.50;;;;;;5014265;28;20657;-80
2021/03/05 12:45:40;;;;;;;2.33;1.60;;;5.90;62.20;;;;;;5014120;28;20645;-79
2021/03/05 12:48:06;;;;;;;4.00;0.90;;;5.80;60.30;;;;;;5014524;28;20185;-78
2021/03/05 12:50:31;;;;;;;5.40;1.23;;;5.60;62.60;;;;;;5013986;28;20189;-79
2021/03/05 12:52:57;;;;;;;2.97;1.70;;;5.70;65.40;;;;;;5015596;28;20481;-77
2021/03/05 12:55:23;;;;;;;1.33;1.17;;;5.60;63.90;;;;;;5015165;28;20205;-80
2021/03/05 12:57:48;;;;;;;1.33;1.13;;;5.50;65.30;;;;;;5018624;28;20177;-79
2021/03/05 13:00:15;;;;;;;1.63;1.50;;;5.70;69.20;;;;;;5028027;28;20406;-78
2021/03/05 13:02:41;;;;;;;1.75;1.27;;;5.90;70.40;;;;;;5014545;28;20754;-78